Weather at Beach Ranch Airport

Public forecast

Using degrees Fahrenheit for public forecast. Weather courtesy of forecast.io.

Closest aviation weather report (METAR) to Beach Ranch Airport

Closest report is Winston Field, 33.4 nm (61.9 km) SSE. Retrieved 2020/10/26 03:35 UTC (0 seconds ago):

KSNK 260335Z AUTO 03016G24KT 4SM -RA OVC005 05/05 A3001 RMK AO2 T00510051

Closest aviation forecast (TAF) to Beach Ranch Airport

Closest forecast is Lubbock Preston Smith International Airport, 43.2 nm (80.1 km) NW. Retrieved 2020-10-26 00:42 UTC (3 hours ago):

TAF KLBB 252340Z 2600/2624 05016KT P6SM SCT007 OVC010 FM260200 05016KT 4SM -DZ BR OVC007 FM261000 03017KT 4SM -FZDZ BR OVC005